createdAt,value
2018-02-04T00:01:05.904Z,100919.64
2018-02-04T00:03:34.220Z,100915.22
2018-02-04T00:06:02.552Z,100914.75
2018-02-04T00:08:30.915Z,100916.64
2018-02-04T00:10:59.212Z,100916.07
2018-02-04T00:13:28.949Z,100920.34
2018-02-04T00:15:58.091Z,100918.92
2018-02-04T00:18:27.282Z,100922.88
2018-02-04T00:20:55.604Z,100920.79
2018-02-04T00:23:24.029Z,100925.91
2018-02-04T00:25:52.352Z,100936.49
2018-02-04T00:28:20.646Z,100937.97
2018-02-04T00:30:48.961Z,100939.48
2018-02-04T00:33:17.282Z,100944.68
2018-02-04T00:35:45.747Z,100946.97
2018-02-04T00:38:14.869Z,100954.41
2018-02-04T00:40:43.483Z,100955.23
2018-02-04T00:43:11.792Z,100961.95
2018-02-04T00:45:41.654Z,100958.41
2018-02-04T00:48:09.971Z,100961.55
2018-02-04T00:50:38.294Z,100959.73
2018-02-04T00:53:06.612Z,100965.68
2018-02-04T00:55:34.916Z,100964.20
2018-02-04T00:58:03.306Z,100970.40
2018-02-04T01:00:32.405Z,100967.30
2018-02-04T01:03:01.464Z,100979.77
2018-02-04T01:05:29.803Z,100980.48
2018-02-04T01:07:58.197Z,100982.34
2018-02-04T01:10:26.509Z,100982.59
2018-02-04T01:12:54.834Z,100987.90
2018-02-04T01:15:23.964Z,100993.90
2018-02-04T01:17:52.261Z,100988.05
2018-02-04T01:20:20.639Z,100997.33
2018-02-04T01:22:49.734Z,100998.89
2018-02-04T01:25:18.032Z,101007.81
2018-02-04T01:27:46.324Z,101004.59
2018-02-04T01:30:15.625Z,101005.22
2018-02-04T01:32:44.691Z,101002.77
2018-02-04T01:35:12.995Z,101011.03
2018-02-04T01:37:42.096Z,101011.86
2018-02-04T01:40:11.223Z,101011.34
2018-02-04T01:42:39.565Z,101012.68
2018-02-04T01:45:07.891Z,101012.65
2018-02-04T01:47:36.362Z,101018.75
2018-02-04T01:50:04.644Z,101012.83
2018-02-04T01:52:33.214Z,101024.99
2018-02-04T01:55:01.535Z,101018.33
2018-02-04T01:57:29.838Z,101016.73
2018-02-04T01:59:58.186Z,101027.47
2018-02-04T02:02:26.475Z,101027.75
2018-02-04T02:04:54.791Z,101022.77
2018-02-04T02:07:23.141Z,101024.34
2018-02-04T02:09:51.472Z,101028.16
2018-02-04T02:12:19.811Z,101027.72
2018-02-04T02:14:49.404Z,101023.11
2018-02-04T02:17:17.793Z,101033.52
2018-02-04T02:19:46.097Z,101032.26
2018-02-04T02:22:15.204Z,101033.14
2018-02-04T02:24:43.493Z,101038.07
2018-02-04T02:27:11.867Z,101039.04
2018-02-04T02:29:40.232Z,101043.00
2018-02-04T02:32:08.552Z,101044.66
2018-02-04T02:34:36.859Z,101051.11
2018-02-04T02:37:06.405Z,101058.67
2018-02-04T02:39:34.715Z,101058.62
2018-02-04T02:42:03.028Z,101062.33
2018-02-04T02:44:32.139Z,101063.52
2018-02-04T02:47:01.226Z,101069.56
2018-02-04T02:49:30.362Z,101077.91
2018-02-04T02:51:58.759Z,101087.43
2018-02-04T02:54:27.067Z,101081.70
2018-02-04T02:56:55.368Z,101088.08
2018-02-04T02:59:24.936Z,101097.63
2018-02-04T03:01:53.248Z,101107.15
2018-02-04T03:04:22.296Z,101095.80
2018-02-04T03:06:50.627Z,101100.41
2018-02-04T03:09:18.934Z,101102.42
2018-02-04T03:11:47.269Z,101107.41
2018-02-04T03:14:15.585Z,101107.19
2018-02-04T03:16:43.905Z,101106.53
2018-02-04T03:19:12.218Z,101112.25
2018-02-04T03:21:40.697Z,101114.33
2018-02-04T03:24:09.009Z,101115.46
2018-02-04T03:26:37.382Z,101118.05
2018-02-04T03:29:05.734Z,101124.38
2018-02-04T03:31:34.066Z,101125.45
2018-02-04T03:34:02.398Z,101125.88
2018-02-04T03:36:31.487Z,101129.11
2018-02-04T03:39:00.579Z,101133.22
2018-02-04T03:41:29.645Z,101140.59
2018-02-04T03:43:58.189Z,101147.92
2018-02-04T03:46:26.501Z,101151.29
2018-02-04T03:48:54.831Z,101154.53
2018-02-04T03:51:23.170Z,101162.09
2018-02-04T03:53:51.507Z,101166.27
2018-02-04T03:56:19.838Z,101172.23
2018-02-04T03:58:48.153Z,101173.72
2018-02-04T04:01:16.453Z,101179.27
2018-02-04T04:03:44.764Z,101188.98
2018-02-04T04:06:13.341Z,101188.73
2018-02-04T04:08:41.623Z,101187.41
2018-02-04T04:11:09.912Z,101199.40
2018-02-04T04:13:39.189Z,101201.95
2018-02-04T04:16:07.569Z,101209.42
2018-02-04T04:18:35.955Z,101206.78
2018-02-04T04:21:04.402Z,101216.37
2018-02-04T04:23:32.725Z,101223.05
2018-02-04T04:26:01.160Z,101233.39
2018-02-04T04:28:29.876Z,101234.05
2018-02-04T04:30:58.357Z,101234.98
2018-02-04T04:33:26.840Z,101242.63
2018-02-04T04:35:55.377Z,101240.16
2018-02-04T04:38:23.718Z,101248.25
2018-02-04T04:40:52.862Z,101257.84
2018-02-04T04:43:21.255Z,101255.66
2018-02-04T04:45:50.477Z,101265.51
2018-02-04T04:48:18.828Z,101266.37
2018-02-04T04:50:47.856Z,101269.27
2018-02-04T04:53:16.172Z,101268.39
2018-02-04T04:55:44.520Z,101272.08
2018-02-04T04:58:13.705Z,101276.20
2018-02-04T05:00:42.088Z,101281.08
2018-02-04T05:03:10.446Z,101289.28
2018-02-04T05:05:38.792Z,101293.73
2018-02-04T05:08:07.121Z,101296.80
2018-02-04T05:10:35.428Z,101304.63
2018-02-04T05:13:04.695Z,101308.70
2018-02-04T05:15:33.023Z,101309.55
2018-02-04T05:18:01.343Z,101315.34
2018-02-04T05:20:29.683Z,101311.31
2018-02-04T05:22:58.019Z,101322.19
2018-02-04T05:25:26.330Z,101329.64
2018-02-04T05:27:54.690Z,101333.18
2018-02-04T05:30:23.023Z,101336.83
2018-02-04T05:32:51.332Z,101345.34
2018-02-04T05:35:19.892Z,101352.89
2018-02-04T05:37:48.206Z,101347.75
2018-02-04T05:40:16.719Z,101356.22
2018-02-04T05:42:45.176Z,101360.41
2018-02-04T05:45:13.531Z,101367.58
2018-02-04T05:47:41.857Z,101367.75
2018-02-04T05:50:10.284Z,101379.05
2018-02-04T05:52:38.634Z,101382.20
2018-02-04T05:55:07.050Z,101389.43
2018-02-04T05:57:35.776Z,101396.61
2018-02-04T06:00:04.065Z,101404.91
2018-02-04T06:02:32.384Z,101401.59
2018-02-04T06:05:00.742Z,101399.28
2018-02-04T06:07:29.040Z,101414.02
2018-02-04T06:09:57.351Z,101417.44
2018-02-04T06:12:26.455Z,101420.42
2018-02-04T06:14:55.531Z,101428.25
2018-02-04T06:17:23.876Z,101438.30
2018-02-04T06:19:52.563Z,101437.95
2018-02-04T06:22:20.873Z,101450.08
2018-02-04T06:24:49.195Z,101448.02
2018-02-04T06:27:17.513Z,101460.50
2018-02-04T06:29:45.815Z,101468.77
2018-02-04T06:32:14.881Z,101471.98
2018-02-04T06:34:43.963Z,101477.67
2018-02-04T06:37:12.272Z,101489.12
2018-02-04T06:39:40.583Z,101493.41
2018-02-04T06:42:08.987Z,101495.02
2018-02-04T06:44:37.316Z,101501.98
2018-02-04T06:47:05.656Z,101501.19
2018-02-04T06:49:33.989Z,101506.36
2018-02-04T06:52:02.311Z,101514.06
2018-02-04T06:54:30.716Z,101523.70
2018-02-04T06:56:59.067Z,101535.55
2018-02-04T06:59:27.369Z,101549.52
2018-02-04T07:01:55.653Z,101553.25
2018-02-04T07:04:24.460Z,101554.35
2018-02-04T07:06:52.776Z,101561.70
2018-02-04T07:09:21.105Z,101561.78
2018-02-04T07:11:49.448Z,101569.52
2018-02-04T07:14:17.764Z,101578.11
2018-02-04T07:16:46.132Z,101577.84
2018-02-04T07:19:14.477Z,101583.73
2018-02-04T07:21:42.816Z,101591.47
2018-02-04T07:24:11.955Z,101597.91
2018-02-04T07:26:40.661Z,101592.76
2018-02-04T07:29:09.158Z,101592.72
2018-02-04T07:31:38.237Z,101596.77
2018-02-04T07:34:06.555Z,101591.56
2018-02-04T07:36:35.643Z,101590.95
2018-02-04T07:39:04.739Z,101601.98
2018-02-04T07:41:33.843Z,101602.83
2018-02-04T07:44:02.924Z,101604.60
2018-02-04T07:46:32.016Z,101609.55
2018-02-04T07:49:01.603Z,101603.73
2018-02-04T07:51:29.944Z,101613.09
2018-02-04T07:53:58.291Z,101620.59
2018-02-04T07:56:27.402Z,101619.03
2018-02-04T07:58:55.715Z,101626.97
2018-02-04T08:01:24.012Z,101624.44
2018-02-04T08:03:52.356Z,101623.67
2018-02-04T08:06:20.722Z,101627.54
2018-02-04T08:08:49.047Z,101631.48
2018-02-04T08:11:17.703Z,101626.05
2018-02-04T08:13:46.018Z,101644.05
2018-02-04T08:16:14.368Z,101650.84
2018-02-04T08:18:42.727Z,101652.11
2018-02-04T08:21:11.047Z,101651.20
2018-02-04T08:23:39.364Z,101655.44
2018-02-04T08:26:08.460Z,101664.31
2018-02-04T08:28:37.524Z,101668.47
2018-02-04T08:31:06.375Z,101664.34
2018-02-04T08:33:35.131Z,101673.22
2018-02-04T08:36:03.591Z,101677.19
2018-02-04T08:38:31.908Z,101671.23
2018-02-04T08:41:00.276Z,101681.80
2018-02-04T08:43:28.591Z,101693.55
2018-02-04T08:45:56.919Z,101709.42
2018-02-04T08:48:26.009Z,101715.16
2018-02-04T08:50:54.352Z,101717.22
2018-02-04T08:53:22.673Z,101712.64
2018-02-04T08:55:51.336Z,101709.18
2018-02-04T08:58:19.689Z,101718.78
2018-02-04T09:00:48.003Z,101716.08
2018-02-04T09:03:16.384Z,101723.84
2018-02-04T09:05:44.680Z,101730.28
2018-02-04T09:08:13.786Z,101737.33
2018-02-04T09:10:42.102Z,101743.20
2018-02-04T09:13:10.444Z,101757.44
2018-02-04T09:15:38.763Z,101751.80
2018-02-04T09:18:07.604Z,101762.48
2018-02-04T09:20:35.931Z,101769.32
2018-02-04T09:23:04.236Z,101771.73
2018-02-04T09:25:35.561Z,101775.22
2018-02-04T09:28:04.631Z,101779.26
2018-02-04T09:30:32.986Z,101784.59
2018-02-04T09:33:02.513Z,101789.42
2018-02-04T09:35:30.841Z,101784.80
2018-02-04T09:37:59.195Z,101798.48
2018-02-04T09:40:27.619Z,101798.78
2018-02-04T09:42:56.700Z,101796.16
2018-02-04T09:45:25.096Z,101796.30
2018-02-04T09:47:54.201Z,101801.06
2018-02-04T09:50:22.531Z,101803.52
2018-02-04T09:52:50.855Z,101814.13
2018-02-04T09:55:19.286Z,101821.38
2018-02-04T09:57:47.691Z,101814.82
2018-02-04T10:00:16.017Z,101818.80
2018-02-04T10:02:44.765Z,101825.54
2018-02-04T10:05:13.094Z,101821.53
2018-02-04T10:07:41.404Z,101821.73
2018-02-04T10:10:10.207Z,101823.02
2018-02-04T10:12:38.579Z,101822.28
2018-02-04T10:15:07.698Z,101830.95
2018-02-04T10:17:36.857Z,101832.06
2018-02-04T10:20:05.205Z,101838.67
2018-02-04T10:22:33.522Z,101846.44
2018-02-04T10:25:02.321Z,101847.82
2018-02-04T10:27:30.680Z,101839.31
2018-02-04T10:29:59.764Z,101840.99
2018-02-04T10:32:28.117Z,101839.20
2018-02-04T10:34:56.450Z,101845.17
2018-02-04T10:37:24.790Z,101842.19
2018-02-04T10:39:53.132Z,101840.81
2018-02-04T10:42:22.228Z,101843.46
2018-02-04T10:44:51.324Z,101847.11
2018-02-04T10:47:20.957Z,101851.88
2018-02-04T10:49:49.371Z,101859.28
2018-02-04T10:52:17.706Z,101870.27
2018-02-04T10:54:46.088Z,101867.23
2018-02-04T10:57:14.408Z,101866.77
2018-02-04T10:59:42.746Z,101880.45
2018-02-04T11:02:11.147Z,101880.13
2018-02-04T11:04:39.543Z,101884.20
2018-02-04T11:07:07.839Z,101889.73
2018-02-04T11:09:36.452Z,101899.41
2018-02-04T11:12:04.781Z,101900.56
2018-02-04T11:14:33.097Z,101900.45
2018-02-04T11:17:02.222Z,101897.95
2018-02-04T11:19:30.557Z,101898.44
2018-02-04T11:21:58.868Z,101900.03
2018-02-04T11:24:27.684Z,101904.16
2018-02-04T11:26:56.054Z,101905.75
2018-02-04T11:29:24.410Z,101899.78
2018-02-04T11:31:53.909Z,101900.27
2018-02-04T11:34:23.007Z,101905.05
2018-02-04T11:36:52.145Z,101913.66
2018-02-04T11:39:20.502Z,101909.25
2018-02-04T11:41:48.820Z,101919.90
2018-02-04T11:44:17.146Z,101929.78
2018-02-04T11:46:46.244Z,101927.63
2018-02-04T11:49:14.575Z,101932.75
2018-02-04T11:51:42.885Z,101929.16
2018-02-04T11:54:11.563Z,101936.30
2018-02-04T11:56:39.888Z,101933.52
2018-02-04T11:59:08.272Z,101936.37
2018-02-04T12:01:36.944Z,101933.09
2018-02-04T12:04:05.359Z,101933.78
2018-02-04T12:06:33.819Z,101938.68
2018-02-04T12:09:02.151Z,101933.67
2018-02-04T12:11:31.257Z,101931.73
2018-02-04T12:14:00.321Z,101940.19
2018-02-04T12:16:29.316Z,101944.70
2018-02-04T12:18:57.653Z,101947.23
2018-02-04T12:21:25.983Z,101952.72
2018-02-04T12:23:55.102Z,101958.27
2018-02-04T12:26:24.176Z,101948.91
2018-02-04T12:28:53.761Z,101946.04
2018-02-04T12:31:22.416Z,101949.92
2018-02-04T12:33:50.732Z,101951.16
2018-02-04T12:36:19.127Z,101956.79
2018-02-04T12:38:48.130Z,101954.76
2018-02-04T12:41:16.454Z,101958.89
2018-02-04T12:43:44.762Z,101951.72
2018-02-04T12:46:13.105Z,101963.97
2018-02-04T12:48:41.439Z,101953.70
2018-02-04T12:51:09.778Z,101952.84
2018-02-04T12:53:38.200Z,101958.73
2018-02-04T12:56:07.441Z,101961.15
2018-02-04T12:58:35.824Z,101965.59
2018-02-04T13:01:04.353Z,101966.78
2018-02-04T13:03:32.676Z,101968.27
2018-02-04T13:06:00.988Z,101973.16
2018-02-04T13:08:29.407Z,101979.00
2018-02-04T13:10:58.581Z,101983.40
2018-02-04T13:13:26.967Z,101986.52
2018-02-04T13:15:55.784Z,101990.87
2018-02-04T13:18:24.096Z,101995.66
2018-02-04T13:20:52.462Z,102000.91
2018-02-04T13:23:21.114Z,102003.91
2018-02-04T13:25:50.220Z,101994.82
2018-02-04T13:28:19.581Z,102005.89
2018-02-04T13:30:47.977Z,102002.91
2018-02-04T13:33:17.106Z,102000.96
2018-02-04T13:35:45.439Z,102003.20
2018-02-04T13:38:13.776Z,102010.68
2018-02-04T13:40:42.076Z,102010.43
2018-02-04T13:43:10.513Z,102014.27
2018-02-04T13:45:39.060Z,102017.59
2018-02-04T13:48:07.402Z,102029.25
2018-02-04T13:50:35.746Z,102021.39
2018-02-04T13:53:05.132Z,102026.56
2018-02-04T13:55:33.472Z,102035.13
2018-02-04T13:58:01.887Z,102035.89
2018-02-04T14:00:30.246Z,102035.52
2018-02-04T14:02:58.570Z,102033.46
2018-02-04T14:05:26.880Z,102026.61
2018-02-04T14:07:55.733Z,102030.30
2018-02-04T14:10:24.041Z,102042.16
2018-02-04T14:12:52.434Z,102047.42
2018-02-04T14:15:20.761Z,102049.28
2018-02-04T14:17:49.216Z,102048.05
2018-02-04T14:20:17.529Z,102053.90
2018-02-04T14:22:46.672Z,102054.94
2018-02-04T14:25:15.034Z,102054.89
2018-02-04T14:27:43.336Z,102048.64
2018-02-04T14:30:12.468Z,102061.25
2018-02-04T14:32:40.814Z,102054.57
2018-02-04T14:35:09.126Z,102053.64
2018-02-04T14:37:38.266Z,102063.48
2018-02-04T14:40:06.592Z,102074.88
2018-02-04T14:42:34.892Z,102082.35
2018-02-04T14:45:03.264Z,102077.34
2018-02-04T14:47:32.349Z,102080.78
2018-02-04T14:50:01.462Z,102092.63
2018-02-04T14:52:31.063Z,102095.41
2018-02-04T14:54:59.487Z,102096.54
2018-02-04T14:57:27.892Z,102104.78
2018-02-04T14:59:56.218Z,102094.58
2018-02-04T15:02:25.294Z,102098.16
2018-02-04T15:04:53.720Z,102107.11
2018-02-04T15:07:22.391Z,102111.55
2018-02-04T15:09:50.895Z,102113.09
2018-02-04T15:12:19.243Z,102114.93
2018-02-04T15:14:47.848Z,102127.95
2018-02-04T15:17:16.173Z,102124.39
2018-02-04T15:19:44.516Z,102122.62
2018-02-04T15:22:12.889Z,102125.97
2018-02-04T15:24:41.369Z,102133.55
2018-02-04T15:27:09.689Z,102136.91
2018-02-04T15:29:38.048Z,102144.75
2018-02-04T15:32:06.442Z,102139.67
2018-02-04T15:34:34.742Z,102154.59
2018-02-04T15:37:04.041Z,102163.11
2018-02-04T15:39:32.360Z,102166.89
2018-02-04T15:42:00.694Z,102166.67
2018-02-04T15:44:29.567Z,102159.95
2018-02-04T15:46:57.898Z,102165.66
2018-02-04T15:49:26.396Z,102159.52
2018-02-04T15:51:54.864Z,102166.17
2018-02-04T15:54:23.212Z,102173.32
2018-02-04T15:56:51.660Z,102176.09
2018-02-04T15:59:20.868Z,102183.88
2018-02-04T16:01:49.200Z,102188.23
2018-02-04T16:04:17.545Z,102189.68
2018-02-04T16:06:46.668Z,102192.17
2018-02-04T16:09:14.996Z,102198.27
2018-02-04T16:11:43.340Z,102197.27
2018-02-04T16:14:11.689Z,102207.58
2018-02-04T16:16:40.791Z,102204.35
2018-02-04T16:19:09.132Z,102204.70
2018-02-04T16:21:38.508Z,102215.63
2018-02-04T16:24:06.864Z,102212.57
2018-02-04T16:26:35.294Z,102219.03
2018-02-04T16:29:03.678Z,102222.41
2018-02-04T16:31:32.179Z,102231.13
2018-02-04T16:34:01.290Z,102234.14
2018-02-04T16:36:29.709Z,102238.67
2018-02-04T16:38:58.077Z,102247.67
2018-02-04T16:41:26.434Z,102247.75
2018-02-04T16:43:55.082Z,102249.78
2018-02-04T16:46:23.520Z,102256.34
2018-02-04T16:48:51.967Z,102247.62
2018-02-04T16:51:20.354Z,102259.08
2018-02-04T16:53:48.729Z,102256.92
2018-02-04T16:56:17.107Z,102258.36
2018-02-04T16:58:46.587Z,102264.70
2018-02-04T17:01:14.917Z,102269.91
2018-02-04T17:03:43.253Z,102275.88
2018-02-04T17:06:12.184Z,102272.95
2018-02-04T17:08:40.504Z,102278.22
2018-02-04T17:11:08.817Z,102279.67
2018-02-04T17:13:37.924Z,102286.14
2018-02-04T17:16:06.256Z,102288.13
2018-02-04T17:18:34.580Z,102289.13
2018-02-04T17:21:02.988Z,102301.00
2018-02-04T17:23:31.347Z,102303.12
2018-02-04T17:25:59.645Z,102304.34
2018-02-04T17:28:28.042Z,102310.69
2018-02-04T17:30:56.344Z,102312.18
2018-02-04T17:33:24.652Z,102318.05
2018-02-04T17:35:53.247Z,102317.30
2018-02-04T17:38:21.548Z,102327.05
2018-02-04T17:40:49.884Z,102328.42
2018-02-04T17:43:18.220Z,102335.40
2018-02-04T17:45:46.546Z,102344.77
2018-02-04T17:48:14.887Z,102336.84
2018-02-04T17:50:43.428Z,102342.77
2018-02-04T17:53:11.738Z,102342.73
2018-02-04T17:55:40.047Z,102342.09
2018-02-04T17:58:09.160Z,102353.31
2018-02-04T18:00:38.249Z,102357.29
2018-02-04T18:03:07.335Z,102358.41
2018-02-04T18:05:36.484Z,102356.84
2018-02-04T18:08:04.844Z,102363.03
2018-02-04T18:10:33.170Z,102364.50
2018-02-04T18:13:02.097Z,102368.70
2018-02-04T18:15:31.202Z,102381.78
2018-02-04T18:18:00.261Z,102378.88
2018-02-04T18:20:28.603Z,102383.00
2018-02-04T18:22:56.932Z,102385.73
2018-02-04T18:25:25.271Z,102390.77
2018-02-04T18:27:53.632Z,102398.01
2018-02-04T18:30:21.941Z,102404.08
2018-02-04T18:32:50.270Z,102406.02
2018-02-04T18:35:18.783Z,102406.95
2018-02-04T18:37:47.200Z,102407.45
2018-02-04T18:40:15.527Z,102406.17
2018-02-04T18:42:43.871Z,102407.68
2018-02-04T18:45:12.956Z,102417.72
2018-02-04T18:47:42.026Z,102417.63
2018-02-04T18:50:10.845Z,102424.52
2018-02-04T18:52:39.169Z,102417.67
2018-02-04T18:55:07.510Z,102423.73
2018-02-04T18:57:36.691Z,102430.11
2018-02-04T19:00:06.815Z,102429.34
2018-02-04T19:02:35.148Z,102436.42
2018-02-04T19:05:03.507Z,102441.62
2018-02-04T19:07:31.987Z,102434.17
2018-02-04T19:10:00.383Z,102438.69
2018-02-04T19:12:28.709Z,102440.16
2018-02-04T19:14:57.039Z,102448.16
2018-02-04T19:17:25.387Z,102450.77
2018-02-04T19:19:54.623Z,102452.92
2018-02-04T19:22:23.213Z,102458.73
2018-02-04T19:24:51.555Z,102459.42
2018-02-04T19:27:20.334Z,102461.25
2018-02-04T19:29:48.662Z,102464.88
2018-02-04T19:32:16.968Z,102465.84
2018-02-04T19:34:45.326Z,102474.17
2018-02-04T19:37:13.681Z,102479.17
2018-02-04T19:39:42.018Z,102482.58
2018-02-04T19:42:11.208Z,102486.34
2018-02-04T19:44:39.531Z,102494.28
2018-02-04T19:47:07.872Z,102503.00
2018-02-04T19:49:37.036Z,102504.70
2018-02-04T19:52:05.403Z,102515.39
2018-02-04T19:54:33.711Z,102518.30
2018-02-04T19:57:02.073Z,102520.20
2018-02-04T19:59:30.433Z,102519.13
2018-02-04T20:01:58.775Z,102530.81
2018-02-04T20:04:28.424Z,102530.00
2018-02-04T20:06:56.745Z,102538.08
2018-02-04T20:09:25.074Z,102537.07
2018-02-04T20:11:53.408Z,102539.38
2018-02-04T20:14:21.738Z,102538.87
2018-02-04T20:16:50.092Z,102544.34
2018-02-04T20:19:18.429Z,102541.80
2018-02-04T20:21:46.744Z,102548.87
2018-02-04T20:24:15.060Z,102546.66
2018-02-04T20:26:43.722Z,102552.11
2018-02-04T20:29:12.024Z,102560.03
2018-02-04T20:31:40.400Z,102567.84
2018-02-04T20:34:26.471Z,102566.58
2018-02-04T20:36:54.816Z,102571.39
2018-02-04T20:39:23.129Z,102566.52
2018-02-04T20:41:52.991Z,102567.64
2018-02-04T20:44:22.145Z,102573.15
2018-02-04T20:46:50.472Z,102576.34
2018-02-04T20:49:18.823Z,102582.05
2018-02-04T20:51:47.126Z,102581.80
2018-02-04T20:54:15.462Z,102584.45
2018-02-04T20:56:43.832Z,102587.72
2018-02-04T20:59:12.168Z,102594.81
2018-02-04T21:01:41.196Z,102599.23
2018-02-04T21:04:09.674Z,102596.68
2018-02-04T21:06:37.973Z,102600.59
2018-02-04T21:09:06.301Z,102609.37
2018-02-04T21:11:34.629Z,102606.31
2018-02-04T21:14:03.188Z,102602.14
2018-02-04T21:16:31.545Z,102610.17
2018-02-04T21:18:59.888Z,102609.64
2018-02-04T21:21:28.351Z,102612.24
2018-02-04T21:23:56.831Z,102611.77
2018-02-04T21:26:25.439Z,102615.78
2018-02-04T21:28:53.748Z,102616.27
2018-02-04T21:31:22.075Z,102622.81
2018-02-04T21:33:50.544Z,102617.87
2018-02-04T21:36:18.893Z,102630.22
2018-02-04T21:38:48.046Z,102621.44
2018-02-04T21:41:16.414Z,102620.98
2018-02-04T21:43:46.098Z,102628.23
2018-02-04T21:46:14.439Z,102630.78
2018-02-04T21:48:43.326Z,102633.22
2018-02-04T21:51:11.648Z,102633.52
2018-02-04T21:53:40.838Z,102631.93
2018-02-04T21:56:10.044Z,102636.13
2018-02-04T21:58:38.371Z,102636.47
2018-02-04T22:01:06.772Z,102637.14
2018-02-04T22:03:35.457Z,102633.70
2018-02-04T22:06:03.788Z,102640.59
2018-02-04T22:08:32.116Z,102644.11
2018-02-04T22:11:00.516Z,102638.06
2018-02-04T22:13:29.843Z,102647.51
2018-02-04T22:15:58.353Z,102644.34
2018-02-04T22:18:26.995Z,102651.33
2018-02-04T22:20:55.303Z,102644.92
2018-02-04T22:23:23.610Z,102653.78
2018-02-04T22:25:51.933Z,102656.34
2018-02-04T22:28:20.288Z,102661.55
2018-02-04T22:30:49.401Z,102663.31
2018-02-04T22:33:18.548Z,102670.56
2018-02-04T22:35:46.845Z,102673.83
2018-02-04T22:38:15.176Z,102676.32
2018-02-04T22:40:43.499Z,102669.39
2018-02-04T22:43:11.804Z,102677.83
2018-02-04T22:45:41.023Z,102680.09
2018-02-04T22:48:09.868Z,102681.91
2018-02-04T22:50:38.163Z,102685.73
2018-02-04T22:53:06.584Z,102673.77
2018-02-04T22:55:35.522Z,102687.50
2018-02-04T22:58:03.820Z,102680.59
2018-02-04T23:00:32.116Z,102684.86
2018-02-04T23:03:02.506Z,102685.68
2018-02-04T23:05:30.809Z,102687.94
2018-02-04T23:07:59.904Z,102688.64
2018-02-04T23:10:28.286Z,102689.15
2018-02-04T23:12:56.624Z,102687.36
2018-02-04T23:15:24.936Z,102692.92
2018-02-04T23:17:54.228Z,102687.63
2018-02-04T23:20:23.358Z,102691.74
2018-02-04T23:22:52.425Z,102688.41
2018-02-04T23:25:21.520Z,102686.78
2018-02-04T23:27:50.601Z,102678.66
2018-02-04T23:30:19.667Z,102680.44
2018-02-04T23:32:48.005Z,102685.44
2018-02-04T23:35:16.290Z,102682.78
2018-02-04T23:37:44.657Z,102688.72
2018-02-04T23:40:13.259Z,102684.54
2018-02-04T23:42:41.577Z,102695.16
2018-02-04T23:45:09.862Z,102696.41
2018-02-04T23:47:38.226Z,102698.17
2018-02-04T23:50:06.552Z,102701.48
2018-02-04T23:52:35.637Z,102701.83
2018-02-04T23:55:04.728Z,102694.05
2018-02-04T23:57:33.037Z,102702.42
